Airfield :
LOGIN :

Register | Disclaimer

   EN    FR    IT 

 










Legend :    VFR   Marginal VFR   IFR   Intensive IFR   Very Intensive IFR
Visi :
Ceiling :
>= 8 km
>= 3000ft
5 to 8 km
1000 to 3000 ft
1500m to 5 km
500 to 1000 ft
800 to 1500m
200 to 500 ft
< 800m
< 200 ft
Symbols :   Thunderstorms  Fog  Heavy snow  Heavy precipitations  Wind > 20 kt
SIGMETs :     Misc.  Thunderstorms  Icing  Turbulence  Mountain Waves  Volcanic Ashes






- Airport Elevation : 194 ft


EBCV - Chièvres

CURRENT METAR :
  • 250925Z AUTO 22011KT 9999 OVC032/// 16/12 Q1018 BLU

EXPIRED METARs :
  • 250855Z AUTO 22008G19KT 9999 OVC038/// 16/12 Q1018 BLU
  • 250825Z AUTO 21012KT 9999 OVC040/// 15/12 Q1019 BLU
  • 250755Z AUTO 21009KT 9999 OVC043/// 15/12 Q1019 BLU
  • 250725Z AUTO 21007KT 9999 OVC045/// 15/12 Q1019 BLU
  • 250655Z AUTO 21008KT 9999 OVC047/// 14/12 Q1019 BLU

TAF TAF EBCV
Valid from the 25 at 07:00 until the 25 at 16:00 UTC


250541Z 2507/2516 20004KT 9000 OVC040
TEMPO 2511/2516 24012KT 7000 -RA OVC022 BY EBWM



MET'MAP, your aeronautical weather chart ! - Copyright ORBIFLY December 2007 - Disclaimer

ORBIFLY MET'MAP TEAM :

Programming & Development : Alexandra Zaïnal
Concept & original design : Baudouin d'Aumeries
Assistance for programming : Marc-Olivier Méhu
Technical & hardware support : Manuel Goepfert

Contact : metmap@orbifly.com




SOURCES & CREDITS :

   NOAA